Time;durP1;ratioP1;P1;durP2;ratioP2;P2;SDS_P1;SDS_P2;PMS_P1;PMS_P2;Temp;Humidity;BMP_temperature;BMP_pressure;BME280_temperature;BME280_humidity;BME280_pressure;Samples;Min_cycle;Max_cycle;Signal;HPM_P1;HPM_P2
2023/07/11 00:00:43;;;;;;;3.13;2.10;;;;;;;;;;5011081;28;20032;-70
2023/07/11 00:03:10;;;;;;;4.28;2.10;;;;;;;;;;5011878;28;20034;-69
2023/07/11 00:05:36;;;;;;;3.42;2.63;;;;;;;;;;5012607;28;20026;-69
2023/07/11 00:08:01;;;;;;;6.15;3.55;;;;;;;;;;5010336;28;20391;-69
2023/07/11 00:10:26;;;;;;;2.67;2.13;;;;;;;;;;5012384;28;20022;-69
2023/07/11 00:12:52;;;;;;;3.63;2.30;;;;;;;;;;5011596;28;20044;-68
2023/07/11 00:15:17;;;;;;;4.78;2.50;;;;;;;;;;5012621;28;20030;-69
2023/07/11 00:17:44;;;;;;;5.40;2.75;;;;;;;;;;5012716;28;20022;-69
2023/07/11 00:20:11;;;;;;;3.30;2.40;;;;;;;;;;5012595;28;20549;-69
2023/07/11 00:22:37;;;;;;;4.43;2.95;;;;;;;;;;5012090;28;20029;-68
2023/07/11 00:25:04;;;;;;;5.90;3.50;;;;;;;;;;5012002;28;20404;-69
2023/07/11 00:27:30;;;;;;;4.88;2.78;;;;;;;;;;4991895;28;20093;-68
2023/07/11 00:29:55;;;;;;;5.80;2.67;;;;;;;;;;4993203;28;20037;-69
2023/07/11 00:32:22;;;;;;;4.22;2.20;;;;;;;;;;5008588;28;20030;-69
2023/07/11 00:34:47;;;;;;;4.20;2.28;;;;;;;;;;4995470;28;20064;-68
2023/07/11 00:37:12;;;;;;;7.63;3.72;;;;;;;;;;5009383;28;20018;-69
2023/07/11 00:39:38;;;;;;;3.83;3.38;;;;;;;;;;5016385;28;20375;-69
2023/07/11 00:42:04;;;;;;;8.35;3.40;;;;;;;;;;5016313;28;20022;-69
2023/07/11 00:44:58;;;;;;;4.88;2.67;;;;;;;;;;5014608;28;20541;-69
2023/07/11 00:47:25;;;;;;;4.88;3.08;;;;;;;;;;5013279;28;20034;-68
2023/07/11 00:49:58;;;;;;;4.72;3.33;;;;;;;;;;5013001;28;20108;-69
2023/07/11 00:52:24;;;;;;;6.60;2.97;;;;;;;;;;5014875;28;20076;-69
2023/07/11 00:54:51;;;;;;;6.28;4.25;;;;;;;;;;5015451;28;20026;-69
2023/07/11 00:57:18;;;;;;;6.20;3.92;;;;;;;;;;5008344;28;20022;-69
2023/07/11 00:59:43;;;;;;;4.65;3.40;;;;;;;;;;5015609;28;20026;-69
2023/07/11 01:02:14;;;;;;;6.80;4.10;;;;;;;;;;5014064;28;20083;-69
2023/07/11 01:04:40;;;;;;;8.60;3.97;;;;;;;;;;5014039;28;20567;-69
2023/07/11 01:07:07;;;;;;;6.88;4.10;;;;;;;;;;5014450;28;20135;-69
2023/07/11 01:09:33;;;;;;;9.75;4.55;;;;;;;;;;5015010;28;20499;-69
2023/07/11 01:12:54;;;;;;;6.88;4.32;;;;;;;;;;5015801;28;20037;-69
2023/07/11 01:15:19;;;;;;;6.30;3.72;;;;;;;;;;5015508;28;20029;-69
2023/07/11 01:17:45;;;;;;;5.47;3.15;;;;;;;;;;5015233;28;20033;-69
2023/07/11 01:20:11;;;;;;;7.10;4.22;;;;;;;;;;5015734;28;20080;-69
2023/07/11 01:22:37;;;;;;;6.68;3.60;;;;;;;;;;5015466;28;20507;-69
2023/07/11 01:25:22;;;;;;;9.77;4.50;;;;;;;;;;5010338;28;20034;-69
2023/07/11 01:27:48;;;;;;;7.22;4.07;;;;;;;;;;5012593;28;20045;-69
2023/07/11 01:30:16;;;;;;;8.43;4.95;;;;;;;;;;5015326;28;20487;-69
2023/07/11 01:32:42;;;;;;;6.97;4.30;;;;;;;;;;5014667;28;20487;-69
2023/07/11 01:35:08;;;;;;;7.82;4.10;;;;;;;;;;5014212;28;20040;-69
2023/07/11 01:37:33;;;;;;;8.15;4.13;;;;;;;;;;5014320;28;20029;-69
2023/07/11 01:39:59;;;;;;;8.32;6.43;;;;;;;;;;5015293;28;20026;-69
2023/07/11 01:42:25;;;;;;;6.30;4.40;;;;;;;;;;5014176;28;20040;-69
2023/07/11 01:44:51;;;;;;;7.25;5.00;;;;;;;;;;5013273;28;20037;-69
2023/07/11 01:47:16;;;;;;;8.70;5.47;;;;;;;;;;5021925;23;20042;-70
2023/07/11 01:49:41;;;;;;;9.32;5.32;;;;;;;;;;5015606;28;20080;-70
2023/07/11 01:52:21;;;;;;;6.55;4.88;;;;;;;;;;4995863;28;20033;-70
2023/07/11 01:54:47;;;;;;;6.95;5.35;;;;;;;;;;4993936;28;20033;-70
2023/07/11 01:57:13;;;;;;;7.47;4.20;;;;;;;;;;4996219;28;20467;-70
2023/07/11 01:59:39;;;;;;;7.30;4.75;;;;;;;;;;4994130;28;20030;-70
2023/07/11 02:02:05;;;;;;;8.88;5.53;;;;;;;;;;4995273;28;20026;-70
2023/07/11 02:04:32;;;;;;;7.82;5.88;;;;;;;;;;5013768;28;20094;-69
2023/07/11 02:06:57;;;;;;;10.75;5.88;;;;;;;;;;5014317;28;20033;-70
2023/07/11 02:09:23;;;;;;;11.43;6.03;;;;;;;;;;4996300;28;20403;-70
2023/07/11 02:11:49;;;;;;;7.78;5.80;;;;;;;;;;4992963;28;20552;-70
2023/07/11 02:14:18;;;;;;;6.00;4.28;;;;;;;;;;4997525;28;20061;-70
2023/07/11 02:16:44;;;;;;;7.18;4.82;;;;;;;;;;4993936;28;20026;-70
2023/07/11 02:19:15;;;;;;;8.13;5.28;;;;;;;;;;4993293;28;20030;-70
2023/07/11 02:21:41;;;;;;;5.78;4.70;;;;;;;;;;4994687;28;20089;-70
2023/07/11 02:24:09;;;;;;;7.97;4.93;;;;;;;;;;4994755;28;20022;-70
2023/07/11 02:26:35;;;;;;;5.00;3.88;;;;;;;;;;4992415;28;20026;-70
2023/07/11 02:29:01;;;;;;;5.90;3.63;;;;;;;;;;4999824;28;20117;-70
2023/07/11 02:31:26;;;;;;;4.43;3.22;;;;;;;;;;4992862;28;20054;-70
2023/07/11 02:33:53;;;;;;;5.47;3.88;;;;;;;;;;4993394;28;20030;-70
2023/07/11 02:36:18;;;;;;;4.88;3.33;;;;;;;;;;4994740;28;20057;-69
2023/07/11 02:38:44;;;;;;;7.88;4.40;;;;;;;;;;4993181;28;20030;-69
2023/07/11 02:41:09;;;;;;;6.38;4.05;;;;;;;;;;4993853;28;20052;-70
2023/07/11 02:43:34;;;;;;;6.43;4.72;;;;;;;;;;4994411;28;20037;-70
2023/07/11 02:46:00;;;;;;;8.07;4.20;;;;;;;;;;4994184;28;20037;-70
2023/07/11 02:48:25;;;;;;;5.70;4.90;;;;;;;;;;5000090;28;20044;-70
2023/07/11 02:50:51;;;;;;;8.02;5.13;;;;;;;;;;4998981;28;20092;-70
2023/07/11 02:53:16;;;;;;;7.78;4.93;;;;;;;;;;4994124;28;20093;-70
2023/07/11 02:55:41;;;;;;;7.32;4.82;;;;;;;;;;4999229;28;20036;-70
2023/07/11 02:58:07;;;;;;;8.75;5.55;;;;;;;;;;5009158;28;20025;-70
2023/07/11 03:00:32;;;;;;;7.55;5.78;;;;;;;;;;4992532;28;20026;-70
2023/07/11 03:02:57;;;;;;;7.82;5.95;;;;;;;;;;4997115;28;20036;-70
2023/07/11 03:05:23;;;;;;;10.90;7.30;;;;;;;;;;4995667;28;20018;-70
2023/07/11 03:07:48;;;;;;;9.77;6.43;;;;;;;;;;4993665;28;20030;-70
2023/07/11 03:10:14;;;;;;;9.73;7.20;;;;;;;;;;4976570;28;20026;-70
2023/07/11 03:12:39;;;;;;;9.23;5.88;;;;;;;;;;5008829;28;20475;-70
2023/07/11 03:15:05;;;;;;;8.23;5.63;;;;;;;;;;4994611;28;20030;-70
2023/07/11 03:17:31;;;;;;;6.13;4.63;;;;;;;;;;4992197;28;20026;-70
2023/07/11 03:19:56;;;;;;;8.52;5.63;;;;;;;;;;4990079;28;20026;-70
2023/07/11 03:22:22;;;;;;;5.80;4.20;;;;;;;;;;4991923;28;20028;-70
2023/07/11 03:24:47;;;;;;;6.80;5.07;;;;;;;;;;4995864;28;20022;-70
2023/07/11 03:27:12;;;;;;;7.18;4.90;;;;;;;;;;4993672;28;20018;-70
2023/07/11 03:29:38;;;;;;;7.90;5.38;;;;;;;;;;4990849;28;20026;-70
2023/07/11 03:32:05;;;;;;;7.20;5.57;;;;;;;;;;4990179;28;20038;-70
2023/07/11 03:34:31;;;;;;;9.27;6.35;;;;;;;;;;4988802;28;20019;-70
2023/07/11 03:36:56;;;;;;;7.53;4.75;;;;;;;;;;5009206;28;20036;-70
2023/07/11 03:39:21;;;;;;;9.68;6.20;;;;;;;;;;5012918;28;20026;-70
2023/07/11 03:41:47;;;;;;;12.00;6.30;;;;;;;;;;4998196;28;20030;-70
2023/07/11 03:44:12;;;;;;;8.35;6.25;;;;;;;;;;4997807;28;20030;-70
2023/07/11 03:46:37;;;;;;;10.95;6.47;;;;;;;;;;4992480;28;20026;-70
2023/07/11 03:49:03;;;;;;;8.07;6.68;;;;;;;;;;4995734;28;20030;-70
2023/07/11 03:51:28;;;;;;;10.75;6.00;;;;;;;;;;4993710;28;20101;-69
2023/07/11 03:53:53;;;;;;;11.13;6.65;;;;;;;;;;4993276;28;20077;-70
2023/07/11 03:56:19;;;;;;;10.40;6.90;;;;;;;;;;4993468;28;20044;-69
2023/07/11 03:58:44;;;;;;;16.02;6.82;;;;;;;;;;4992605;28;20034;-70
2023/07/11 04:01:10;;;;;;;9.85;6.30;;;;;;;;;;4993441;28;20030;-70
2023/07/11 04:03:35;;;;;;;9.82;5.97;;;;;;;;;;4993251;28;20030;-70
2023/07/11 04:06:00;;;;;;;11.18;6.57;;;;;;;;;;4995043;28;20030;-69
2023/07/11 04:08:26;;;;;;;10.65;5.32;;;;;;;;;;4997186;28;20024;-70
2023/07/11 04:10:51;;;;;;;9.10;6.70;;;;;;;;;;4996707;28;20038;-70
2023/07/11 04:13:16;;;;;;;9.13;7.82;;;;;;;;;;4997095;28;20441;-70
2023/07/11 04:15:42;;;;;;;9.93;5.40;;;;;;;;;;4997174;28;20029;-69
2023/07/11 04:18:07;;;;;;;8.77;5.63;;;;;;;;;;4997198;28;20081;-70
2023/07/11 04:20:35;;;;;;;8.30;6.18;;;;;;;;;;4996837;28;20464;-69
2023/07/11 04:23:00;;;;;;;8.50;4.78;;;;;;;;;;4997062;28;20030;-70
2023/07/11 04:25:25;;;;;;;5.72;4.63;;;;;;;;;;4995082;28;20026;-70
2023/07/11 04:27:51;;;;;;;7.55;4.43;;;;;;;;;;4996545;28;20033;-70
2023/07/11 04:30:16;;;;;;;7.32;4.88;;;;;;;;;;4995532;28;20052;-69
2023/07/11 04:32:41;;;;;;;9.48;6.35;;;;;;;;;;4997806;28;20402;-70
2023/07/11 04:35:12;;;;;;;7.57;4.28;;;;;;;;;;4996811;28;20022;-69
2023/07/11 04:37:37;;;;;;;5.60;4.22;;;;;;;;;;5000362;28;20036;-70
2023/07/11 04:40:03;;;;;;;10.93;5.18;;;;;;;;;;5007187;28;20403;-70
2023/07/11 04:42:29;;;;;;;9.70;5.50;;;;;;;;;;4996541;28;20552;-69
2023/07/11 04:44:54;;;;;;;9.18;4.97;;;;;;;;;;4996691;28;20048;-70
2023/07/11 04:47:20;;;;;;;11.75;5.28;;;;;;;;;;4997156;28;20026;-70
2023/07/11 04:49:46;;;;;;;10.30;5.18;;;;;;;;;;4996840;28;20112;-69
2023/07/11 04:52:11;;;;;;;8.38;5.18;;;;;;;;;;5016289;28;20075;-69
2023/07/11 04:54:36;;;;;;;8.52;4.97;;;;;;;;;;5006628;28;20025;-70
2023/07/11 04:57:02;;;;;;;8.02;5.05;;;;;;;;;;4995276;28;20023;-70
2023/07/11 04:59:27;;;;;;;8.65;4.50;;;;;;;;;;4996319;28;20030;-70
2023/07/11 05:01:53;;;;;;;9.52;5.65;;;;;;;;;;4996562;28;20023;-70
2023/07/11 05:04:18;;;;;;;7.18;4.63;;;;;;;;;;4995648;28;20034;-69
2023/07/11 05:06:44;;;;;;;8.90;5.30;;;;;;;;;;4994654;28;20033;-70
2023/07/11 05:09:09;;;;;;;7.40;4.95;;;;;;;;;;4996318;28;20073;-70
2023/07/11 05:11:36;;;;;;;8.43;4.68;;;;;;;;;;4994987;28;20037;-70
2023/07/11 05:14:01;;;;;;;6.38;4.10;;;;;;;;;;4994979;28;20077;-70
2023/07/11 05:16:28;;;;;;;5.85;3.80;;;;;;;;;;4993347;28;20026;-70
2023/07/11 05:18:55;;;;;;;7.43;4.57;;;;;;;;;;4995444;28;20376;-70
2023/07/11 05:21:21;;;;;;;8.60;4.70;;;;;;;;;;4996317;28;20062;-70
2023/07/11 05:23:46;;;;;;;7.93;3.90;;;;;;;;;;5008480;28;20076;-70
2023/07/11 05:26:12;;;;;;;6.22;4.00;;;;;;;;;;5002006;28;20041;-70
2023/07/11 05:28:37;;;;;;;7.90;4.38;;;;;;;;;;5015410;28;20483;-70
2023/07/11 05:31:04;;;;;;;5.80;3.80;;;;;;;;;;5005423;28;20037;-70
2023/07/11 05:33:30;;;;;;;7.75;4.53;;;;;;;;;;4976342;28;20400;-70
2023/07/11 05:36:31;;;;;;;5.90;3.88;;;;;;;;;;4978160;28;20019;-70
2023/07/11 05:38:58;;;;;;;6.72;3.67;;;;;;;;;;4993918;28;20101;-70
2023/07/11 05:41:23;;;;;;;8.90;3.72;;;;;;;;;;4994207;28;20088;-70
2023/07/11 05:43:49;;;;;;;6.88;3.25;;;;;;;;;;4995538;28;20034;-70
2023/07/11 05:46:14;;;;;;;7.40;3.78;;;;;;;;;;4995203;28;20033;-70
2023/07/11 05:48:39;;;;;;;6.57;3.75;;;;;;;;;;4995822;28;20459;-70
2023/07/11 05:51:07;;;;;;;5.57;3.47;;;;;;;;;;5004866;28;20040;-70
2023/07/11 05:53:33;;;;;;;6.65;3.60;;;;;;;;;;5013593;28;20026;-69
2023/07/11 05:55:59;;;;;;;5.30;3.25;;;;;;;;;;5009707;28;20056;-70
2023/07/11 05:58:28;;;;;;;8.00;4.13;;;;;;;;;;5009635;28;20029;-70
2023/07/11 06:00:55;;;;;;;5.43;3.38;;;;;;;;;;5013442;28;20032;-70
2023/07/11 06:03:24;;;;;;;8.15;4.78;;;;;;;;;;4998863;28;20030;-70
2023/07/11 06:05:49;;;;;;;5.82;3.60;;;;;;;;;;4993816;28;20022;-70
2023/07/11 06:08:15;;;;;;;7.88;3.97;;;;;;;;;;4995425;28;20058;-71
2023/07/11 06:10:41;;;;;;;5.80;3.50;;;;;;;;;;4994580;28;20209;-73
2023/07/11 06:13:07;;;;;;;8.45;4.07;;;;;;;;;;4979569;28;20030;-72
2023/07/11 06:15:33;;;;;;;8.10;3.50;;;;;;;;;;4974322;28;20097;-73
2023/07/11 06:17:58;;;;;;;8.40;3.38;;;;;;;;;;4984239;28;20015;-73
2023/07/11 06:20:24;;;;;;;5.00;3.45;;;;;;;;;;4994490;28;20475;-73
2023/07/11 06:22:49;;;;;;;7.50;3.38;;;;;;;;;;4995591;28;20026;-73
2023/07/11 06:25:15;;;;;;;9.50;3.53;;;;;;;;;;5014550;28;20034;-73
2023/07/11 06:27:40;;;;;;;9.85;4.95;;;;;;;;;;5003676;28;20382;-73
2023/07/11 06:30:06;;;;;;;6.45;3.03;;;;;;;;;;4975962;28;20091;-73
2023/07/11 06:32:31;;;;;;;9.18;3.67;;;;;;;;;;4994411;28;20037;-73
2023/07/11 06:34:57;;;;;;;5.43;3.40;;;;;;;;;;4993635;28;20467;-72
2023/07/11 06:37:22;;;;;;;8.85;3.00;;;;;;;;;;5001034;28;20029;-72
2023/07/11 06:39:48;;;;;;;6.55;2.80;;;;;;;;;;4994808;28;20018;-72
2023/07/11 06:42:13;;;;;;;7.22;3.58;;;;;;;;;;4992770;28;20076;-72
2023/07/11 06:44:38;;;;;;;5.55;3.03;;;;;;;;;;4993122;28;20467;-72
2023/07/11 06:47:04;;;;;;;5.30;2.80;;;;;;;;;;4992715;28;20026;-72
2023/07/11 06:49:30;;;;;;;6.43;2.63;;;;;;;;;;4999402;28;20121;-72
2023/07/11 06:52:02;;;;;;;8.70;3.17;;;;;;;;;;5070012;28;20753;-72
2023/07/11 06:54:27;;;;;;;6.28;2.88;;;;;;;;;;5070267;28;20029;-72
2023/07/11 06:56:54;;;;;;;6.55;2.92;;;;;;;;;;5069804;28;20382;-72
2023/07/11 06:59:20;;;;;;;5.28;3.40;;;;;;;;;;5070180;28;20060;-72
2023/07/11 07:01:45;;;;;;;5.93;2.88;;;;;;;;;;5066145;28;20052;-71
2023/07/11 07:04:13;;;;;;;7.57;3.22;;;;;;;;;;5042874;28;20076;-71
2023/07/11 07:06:39;;;;;;;5.70;3.10;;;;;;;;;;5029354;28;20047;-73
2023/07/11 07:09:04;;;;;;;4.53;2.75;;;;;;;;;;5035505;28;20580;-72
2023/07/11 07:11:29;;;;;;;5.97;2.45;;;;;;;;;;5028383;28;20026;-72
2023/07/11 07:13:55;;;;;;;4.30;2.95;;;;;;;;;;5068575;28;20021;-73
2023/07/11 07:16:20;;;;;;;6.65;2.95;;;;;;;;;;5068990;28;20385;-73
2023/07/11 07:18:45;;;;;;;4.18;2.63;;;;;;;;;;5068760;28;20158;-73
2023/07/11 07:21:11;;;;;;;6.00;2.42;;;;;;;;;;5068291;28;20012;-74
2023/07/11 07:23:36;;;;;;;3.92;2.30;;;;;;;;;;5063835;28;20025;-73
2023/07/11 07:26:03;;;;;;;4.50;2.70;;;;;;;;;;5069170;28;20033;-72
2023/07/11 07:28:29;;;;;;;4.30;2.40;;;;;;;;;;5068001;28;20028;-72
2023/07/11 07:30:55;;;;;;;6.28;2.50;;;;;;;;;;5068170;28;20035;-73
2023/07/11 07:33:23;;;;;;;5.95;3.00;;;;;;;;;;5068083;28;20028;-72
2023/07/11 07:35:49;;;;;;;4.15;2.80;;;;;;;;;;5068161;28;20494;-71
2023/07/11 07:38:14;;;;;;;7.05;2.88;;;;;;;;;;5055765;28;20041;-72
2023/07/11 07:40:40;;;;;;;5.25;2.45;;;;;;;;;;5029706;28;20123;-72
2023/07/11 07:43:05;;;;;;;9.30;2.63;;;;;;;;;;5032086;28;20095;-72
2023/07/11 07:45:30;;;;;;;5.20;2.72;;;;;;;;;;5049720;28;20438;-71
2023/07/11 07:47:56;;;;;;;4.93;2.38;;;;;;;;;;5049112;28;20087;-72
2023/07/11 07:50:21;;;;;;;8.68;2.40;;;;;;;;;;5030472;28;20441;-71
2023/07/11 07:52:47;;;;;;;3.50;2.10;;;;;;;;;;5029240;28;20116;-72
2023/07/11 07:55:12;;;;;;;4.65;2.20;;;;;;;;;;5059013;28;20063;-72
2023/07/11 07:57:37;;;;;;;8.05;2.55;;;;;;;;;;5063707;28;20104;-73
2023/07/11 08:00:04;;;;;;;6.07;2.28;;;;;;;;;;5067000;28;20389;-71
2023/07/11 08:02:31;;;;;;;3.65;2.33;;;;;;;;;;5060567;28;20028;-73
2023/07/11 08:04:59;;;;;;;3.70;2.00;;;;;;;;;;5040953;28;20033;-71
2023/07/11 08:07:26;;;;;;;7.10;2.55;;;;;;;;;;5035488;28;20405;-71
2023/07/11 08:09:53;;;;;;;7.13;2.60;;;;;;;;;;5039028;28;20025;-71
2023/07/11 08:12:18;;;;;;;7.88;2.00;;;;;;;;;;5055623;28;20033;-71
2023/07/11 08:14:43;;;;;;;4.10;1.95;;;;;;;;;;5033838;28;20029;-71
2023/07/11 08:17:09;;;;;;;5.18;2.25;;;;;;;;;;5035283;28;20474;-71
2023/07/11 08:19:34;;;;;;;5.55;2.42;;;;;;;;;;5032759;28;20063;-70
2023/07/11 08:22:00;;;;;;;5.78;2.20;;;;;;;;;;5034957;28;20017;-70
2023/07/11 08:24:26;;;;;;;6.93;2.13;;;;;;;;;;5025079;28;20033;-71
2023/07/11 08:26:51;;;;;;;6.68;2.25;;;;;;;;;;5014451;28;20030;-71
2023/07/11 08:29:17;;;;;;;4.10;2.20;;;;;;;;;;5040845;28;20021;-70
2023/07/11 08:31:42;;;;;;;3.58;2.40;;;;;;;;;;5055037;28;20025;-71
2023/07/11 08:34:07;;;;;;;6.57;2.63;;;;;;;;;;5054916;28;20048;-71
2023/07/11 08:36:33;;;;;;;4.88;2.20;;;;;;;;;;5054682;28;20393;-72
2023/07/11 08:38:58;;;;;;;4.68;2.20;;;;;;;;;;5049053;28;20390;-71
2023/07/11 08:41:35;;;;;;;4.75;2.20;;;;;;;;;;5017290;28;20034;-71
2023/07/11 08:44:03;;;;;;;;;;;;;;;;;;5014274;28;20030;-71
2023/07/11 08:46:32;;;;;;;3.88;2.13;;;;;;;;;;5015237;28;19996;-72
2023/07/11 08:48:59;;;;;;;4.60;2.25;;;;;;;;;;5013669;28;20030;-71
2023/07/11 08:51:33;;;;;;;5.38;2.35;;;;;;;;;;5034358;28;20482;-71
2023/07/11 08:54:09;;;;;;;4.78;2.28;;;;;;;;;;5033564;28;20025;-71
2023/07/11 08:56:37;;;;;;;5.70;2.30;;;;;;;;;;5030440;28;20022;-71
2023/07/11 08:59:38;;;;;;;4.55;2.30;;;;;;;;;;5014860;28;20479;-71
2023/07/11 09:02:09;;;;;;;3.83;1.83;;;;;;;;;;5034947;28;20117;-71
2023/07/11 09:04:36;;;;;;;5.60;2.58;;;;;;;;;;5054344;28;20032;-71
2023/07/11 09:07:05;;;;;;;7.53;2.40;;;;;;;;;;5053357;28;20029;-72
2023/07/11 09:09:32;;;;;;;6.35;2.25;;;;;;;;;;5035353;28;20029;-70
2023/07/11 09:12:45;;;;;;;7.25;2.45;;;;;;;;;;5034052;28;20022;-71
2023/07/11 09:15:28;;;;;;;4.72;2.50;;;;;;;;;;5013797;28;20183;-71
2023/07/11 09:18:15;;;;;;;4.75;2.47;;;;;;;;;;5037091;28;20017;-71
2023/07/11 09:20:46;;;;;;;2.70;2.05;;;;;;;;;;5033371;28;20116;-71
2023/07/11 09:23:17;;;;;;;3.75;2.30;;;;;;;;;;5029552;28;20471;-71
2023/07/11 09:25:44;;;;;;;6.15;2.45;;;;;;;;;;5014422;28;20034;-71
2023/07/11 09:28:21;;;;;;;3.72;2.25;;;;;;;;;;5012930;28;20033;-71
2023/07/11 09:30:51;;;;;;;4.50;2.40;;;;;;;;;;5013293;28;20018;-71
2023/07/11 09:33:29;;;;;;;6.28;2.30;;;;;;;;;;5014204;28;20022;-71
2023/07/11 09:35:55;;;;;;;6.55;2.33;;;;;;;;;;5013063;28;20056;-71
2023/07/11 09:38:36;;;;;;;5.75;2.10;;;;;;;;;;5013032;28;20479;-71
2023/07/11 09:41:12;;;;;;;4.10;2.08;;;;;;;;;;5024973;28;20018;-71
2023/07/11 09:43:37;;;;;;;4.50;2.03;;;;;;;;;;5029357;28;20091;-71
2023/07/11 09:46:13;;;;;;;6.68;2.40;;;;;;;;;;5024702;28;20026;-70
2023/07/11 09:48:39;;;;;;;4.25;2.50;;;;;;;;;;5012823;28;20032;-71
2023/07/11 09:51:16;;;;;;;3.53;2.13;;;;;;;;;;5021208;28;20037;-71
2023/07/11 09:53:43;;;;;;;5.82;2.20;;;;;;;;;;5014158;28;20034;-71
2023/07/11 09:56:11;;;;;;;4.82;2.70;;;;;;;;;;5020433;28;20446;-71
2023/07/11 09:58:37;;;;;;;4.97;2.25;;;;;;;;;;5013706;28;20432;-71
2023/07/11 10:01:06;;;;;;;4.32;2.58;;;;;;;;;;5021174;28;20052;-70
2023/07/11 10:03:35;;;;;;;4.45;2.17;;;;;;;;;;5032457;28;20021;-71
2023/07/11 10:06:04;;;;;;;4.13;2.47;;;;;;;;;;5033226;28;20573;-71
2023/07/11 10:08:34;;;;;;;6.63;2.47;;;;;;;;;;5033645;28;20037;-71
2023/07/11 10:11:12;;;;;;;5.88;2.45;;;;;;;;;;5033179;28;20105;-71
2023/07/11 10:13:40;;;;;;;4.63;2.30;;;;;;;;;;5032572;28;20482;-71
2023/07/11 10:16:05;;;;;;;6.70;2.15;;;;;;;;;;5033144;28;20076;-71
2023/07/11 10:18:34;;;;;;;4.05;2.35;;;;;;;;;;5030897;28;20057;-71
2023/07/11 10:21:10;;;;;;;5.70;2.03;;;;;;;;;;5012764;28;20076;-71
2023/07/11 10:23:35;;;;;;;2.70;2.03;;;;;;;;;;5020913;28;20390;-71
2023/07/11 10:26:15;;;;;;;5.45;2.10;;;;;;;;;;5031001;28;20029;-71
2023/07/11 10:28:43;;;;;;;4.07;2.00;;;;;;;;;;5020220;28;20501;-71
2023/07/11 10:31:14;;;;;;;4.30;2.20;;;;;;;;;;5025729;28;20079;-71
2023/07/11 10:33:53;;;;;;;3.13;2.00;;;;;;;;;;5031485;28;20034;-71
2023/07/11 10:36:27;;;;;;;3.17;2.03;;;;;;;;;;5025188;28;20053;-71
2023/07/11 10:39:07;;;;;;;4.00;2.10;;;;;;;;;;5020080;28;20030;-71
2023/07/11 10:41:41;;;;;;;3.38;1.65;;;;;;;;;;5016945;28;20021;-73
2023/07/11 10:44:11;;;;;;;3.95;1.73;;;;;;;;;;5022134;28;20028;-70
2023/07/11 10:46:41;;;;;;;4.35;1.90;;;;;;;;;;5024401;28;20037;-71
2023/07/11 10:49:15;;;;;;;4.15;2.35;;;;;;;;;;5017921;28;20033;-72
2023/07/11 10:51:52;;;;;;;4.13;2.00;;;;;;;;;;5027535;28;20113;-70
2023/07/11 10:54:23;;;;;;;3.78;2.20;;;;;;;;;;5029007;28;20105;-71
2023/07/11 10:56:52;;;;;;;4.60;1.88;;;;;;;;;;5026713;28;20025;-70
2023/07/11 10:59:22;;;;;;;4.60;1.88;;;;;;;;;;5020347;28;20060;-71
2023/07/11 11:01:57;;;;;;;6.93;2.85;;;;;;;;;;5011529;28;20482;-71
2023/07/11 11:04:56;;;;;;;2.92;1.85;;;;;;;;;;5019570;28;20040;-70
2023/07/11 11:07:26;;;;;;;3.80;2.13;;;;;;;;;;5016369;28;20029;-70
2023/07/11 11:10:16;;;;;;;3.20;1.95;;;;;;;;;;5024856;28;20033;-70
2023/07/11 11:12:56;;;;;;;3.42;1.85;;;;;;;;;;5024358;28;20132;-70
2023/07/11 11:15:45;;;;;;;4.45;1.80;;;;;;;;;;5029011;28;20033;-70
2023/07/11 11:18:35;;;;;;;4.13;2.10;;;;;;;;;;5024885;28;20389;-70
2023/07/11 11:21:27;;;;;;;4.00;1.85;;;;;;;;;;5026678;28;20091;-70
2023/07/11 11:24:09;;;;;;;4.10;1.98;;;;;;;;;;5014944;28;20104;-70
2023/07/11 11:27:02;;;;;;;3.88;1.65;;;;;;;;;;5016967;28;20024;-70
2023/07/11 11:29:47;;;;;;;4.18;1.80;;;;;;;;;;5028627;28;20036;-71
2023/07/11 11:32:26;;;;;;;3.30;1.90;;;;;;;;;;5019428;28;20125;-71
2023/07/11 11:35:17;;;;;;;3.92;1.70;;;;;;;;;;5034226;28;20494;-73
2023/07/11 11:38:24;;;;;;;3.50;1.73;;;;;;;;;;5049977;28;20396;-73
2023/07/11 11:40:54;;;;;;;4.28;2.00;;;;;;;;;;5054372;28;20393;-72
2023/07/11 11:43:21;;;;;;;3.28;1.90;;;;;;;;;;5045904;28;20398;-73
2023/07/11 11:45:47;;;;;;;3.80;1.77;;;;;;;;;;5050406;28;20017;-73
2023/07/11 11:48:21;;;;;;;4.05;1.77;;;;;;;;;;5056031;28;20031;-73
2023/07/11 11:50:47;;;;;;;4.72;1.90;;;;;;;;;;5054378;28;20381;-73
2023/07/11 11:53:44;;;;;;;3.40;1.80;;;;;;;;;;5055319;28;20132;-73
2023/07/11 11:56:11;;;;;;;3.05;1.85;;;;;;;;;;5050321;28;20489;-73
2023/07/11 11:58:49;;;;;;;3.85;2.10;;;;;;;;;;5055545;28;20025;-72
2023/07/11 12:01:34;;;;;;;3.25;1.80;;;;;;;;;;5055867;28;20033;-72
2023/07/11 12:03:59;;;;;;;3.80;2.00;;;;;;;;;;5053870;28;20107;-72
2023/07/11 12:06:36;;;;;;;3.65;2.00;;;;;;;;;;5055790;28;20074;-73
2023/07/11 12:09:16;;;;;;;2.47;1.83;;;;;;;;;;5054957;28;20417;-72
2023/07/11 12:11:43;;;;;;;3.40;1.90;;;;;;;;;;5055723;28;20089;-73
2023/07/11 12:14:23;;;;;;;2.83;1.80;;;;;;;;;;5053343;28;20025;-72
2023/07/11 12:16:49;;;;;;;3.75;1.80;;;;;;;;;;5021183;28;20376;-72
2023/07/11 12:19:28;;;;;;;2.95;1.88;;;;;;;;;;5014849;28;20079;-71
2023/07/11 12:22:04;;;;;;;2.72;1.67;;;;;;;;;;5026196;28;20486;-72
2023/07/11 12:24:32;;;;;;;2.63;1.90;;;;;;;;;;5044925;28;20508;-71
2023/07/11 12:27:20;;;;;;;3.92;1.95;;;;;;;;;;5055174;28;20021;-72
2023/07/11 12:29:49;;;;;;;4.03;1.95;;;;;;;;;;5055481;28;20488;-71
2023/07/11 12:32:33;;;;;;;4.22;1.90;;;;;;;;;;5053911;28;20036;-71
2023/07/11 12:35:04;;;;;;;4.22;1.95;;;;;;;;;;5054892;28;20096;-72
2023/07/11 12:37:32;;;;;;;3.90;1.80;;;;;;;;;;5055218;28;20071;-72
2023/07/11 12:40:14;;;;;;;2.78;1.92;;;;;;;;;;5047824;28;20517;-71
2023/07/11 12:42:51;;;;;;;3.47;2.10;;;;;;;;;;5033955;28;20437;-72
2023/07/11 12:45:20;;;;;;;2.17;1.80;;;;;;;;;;5032286;28;20032;-72
2023/07/11 12:47:47;;;;;;;4.15;2.05;;;;;;;;;;5030421;28;20112;-72
2023/07/11 12:50:23;;;;;;;3.67;1.70;;;;;;;;;;5014495;28;20578;-71
2023/07/11 12:53:02;;;;;;;5.90;2.17;;;;;;;;;;5052882;28;20120;-71
2023/07/11 12:55:29;;;;;;;3.65;1.80;;;;;;;;;;5053145;28;20551;-71
2023/07/11 12:57:54;;;;;;;2.72;1.88;;;;;;;;;;5037979;28;20406;-72
2023/07/11 13:00:21;;;;;;;3.22;1.70;;;;;;;;;;5034772;28;20033;-72
2023/07/11 13:02:47;;;;;;;3.47;1.92;;;;;;;;;;5034445;28;20036;-72
2023/07/11 13:05:15;;;;;;;4.00;1.92;;;;;;;;;;5033332;28;20021;-71
2023/07/11 13:07:41;;;;;;;2.97;1.83;;;;;;;;;;5024215;28;20148;-72
2023/07/11 13:10:20;;;;;;;3.75;1.85;;;;;;;;;;5034899;28;20500;-72
2023/07/11 13:12:45;;;;;;;3.53;1.88;;;;;;;;;;5019029;28;20399;-72
2023/07/11 13:15:17;;;;;;;3.97;1.77;;;;;;;;;;5014809;28;20018;-72
2023/07/11 13:17:43;;;;;;;4.00;2.90;;;;;;;;;;5017001;28;20050;-72
2023/07/11 13:20:18;;;;;;;2.92;1.98;;;;;;;;;;5029385;28;20032;-72
2023/07/11 13:22:44;;;;;;;3.22;2.05;;;;;;;;;;5031133;28;20384;-73
2023/07/11 13:25:27;;;;;;;3.70;1.85;;;;;;;;;;5034262;28;20032;-70
2023/07/11 13:27:52;;;;;;;2.25;1.80;;;;;;;;;;5033293;28;20029;-70
2023/07/11 13:30:20;;;;;;;4.38;2.30;;;;;;;;;;5032177;28;20392;-70
2023/07/11 13:32:45;;;;;;;3.63;1.70;;;;;;;;;;5034459;28;20029;-70
2023/07/11 13:35:15;;;;;;;2.97;2.10;;;;;;;;;;5034498;28;20025;-70
2023/07/11 13:37:44;;;;;;;3.88;2.10;;;;;;;;;;5041229;28;20023;-70
2023/07/11 13:40:34;;;;;;;5.63;2.30;;;;;;;;;;5052529;28;20027;-70
2023/07/11 13:43:01;;;;;;;3.38;2.10;;;;;;;;;;5053717;28;20020;-70
2023/07/11 13:45:26;;;;;;;4.57;1.90;;;;;;;;;;5052518;28;20021;-70
2023/07/11 13:47:53;;;;;;;3.33;2.22;;;;;;;;;;5059424;22;20187;-79
2023/07/11 13:50:21;;;;;;;2.63;1.75;;;;;;;;;;5033931;28;20018;-78
2023/07/11 13:52:53;;;;;;;2.63;2.00;;;;;;;;;;5033241;28;20025;-78
2023/07/11 13:55:22;;;;;;;3.75;1.90;;;;;;;;;;5032671;28;20025;-78
2023/07/11 13:57:47;;;;;;;3.30;1.83;;;;;;;;;;4998347;28;20025;-79
2023/07/11 14:00:15;;;;;;;3.53;2.00;;;;;;;;;;5014230;28;20028;-78
2023/07/11 14:02:41;;;;;;;3.35;2.20;;;;;;;;;;5008527;28;20112;-78
2023/07/11 14:05:22;;;;;;;2.70;1.80;;;;;;;;;;5016650;28;20067;-79
2023/07/11 14:07:49;;;;;;;4.00;1.90;;;;;;;;;;5011299;28;20084;-78
2023/07/11 14:10:16;;;;;;;8.65;2.13;;;;;;;;;;5031281;28;20560;-78
2023/07/11 14:12:41;;;;;;;4.55;2.33;;;;;;;;;;5016965;28;20079;-79
2023/07/11 14:15:19;;;;;;;3.58;2.03;;;;;;;;;;5019222;28;20025;-79
2023/07/11 14:17:45;;;;;;;3.45;2.17;;;;;;;;;;4998424;28;20022;-78
2023/07/11 14:20:19;;;;;;;3.53;1.92;;;;;;;;;;5016900;28;20060;-78
2023/07/11 14:22:44;;;;;;;3.53;2.17;;;;;;;;;;5032758;28;20025;-78
2023/07/11 14:25:14;;;;;;;4.20;2.08;;;;;;;;;;5010792;28;20487;-78
2023/07/11 14:27:40;;;;;;;3.92;1.90;;;;;;;;;;5013655;28;20467;-78
2023/07/11 14:30:07;;;;;;;3.80;1.80;;;;;;;;;;4999275;28;20101;-77
2023/07/11 14:32:33;;;;;;;3.35;2.00;;;;;;;;;;5016033;28;20510;-78
2023/07/11 14:34:58;;;;;;;3.63;2.15;;;;;;;;;;5032536;28;20025;-78
2023/07/11 14:37:23;;;;;;;3.60;1.92;;;;;;;;;;5031539;28;20056;-78
2023/07/11 14:39:49;;;;;;;3.65;2.20;;;;;;;;;;5033128;28;20445;-78
2023/07/11 14:42:19;;;;;;;3.95;1.95;;;;;;;;;;5020294;28;20384;-78
2023/07/11 14:44:44;;;;;;;3.45;2.22;;;;;;;;;;5012706;28;20057;-78
2023/07/11 14:47:10;;;;;;;2.95;1.98;;;;;;;;;;5022395;28;20057;-78
2023/07/11 14:49:35;;;;;;;3.53;2.00;;;;;;;;;;5012853;28;20497;-78
2023/07/11 14:52:00;;;;;;;2.95;1.95;;;;;;;;;;5012707;28;20204;-78
2023/07/11 14:54:29;;;;;;;3.58;2.20;;;;;;;;;;5013554;28;20026;-77